sensor_id;sensor_type;location;lat;lon;timestamp;P1;durP1;ratioP1;P2;durP2;ratioP2
15202;SDS011;7702;51.046;5.184;2023-11-22T00:00:19;28.00;;;17.30;;
15202;SDS011;7702;51.046;5.184;2023-11-22T00:02:45;27.90;;;17.97;;
15202;SDS011;7702;51.046;5.184;2023-11-22T00:05:12;28.87;;;17.07;;
15202;SDS011;7702;51.046;5.184;2023-11-22T00:07:38;30.03;;;16.83;;
15202;SDS011;7702;51.046;5.184;2023-11-22T00:10:04;28.17;;;17.27;;
15202;SDS011;7702;51.046;5.184;2023-11-22T00:12:30;28.47;;;18.93;;
15202;SDS011;7702;51.046;5.184;2023-11-22T00:15:03;29.60;;;18.17;;
15202;SDS011;7702;51.046;5.184;2023-11-22T00:17:33;30.03;;;18.83;;
15202;SDS011;7702;51.046;5.184;2023-11-22T00:19:59;29.53;;;18.37;;
15202;SDS011;7702;51.046;5.184;2023-11-22T00:22:27;28.27;;;18.27;;
15202;SDS011;7702;51.046;5.184;2023-11-22T00:24:53;27.40;;;17.57;;
15202;SDS011;7702;51.046;5.184;2023-11-22T00:27:19;31.50;;;18.37;;
15202;SDS011;7702;51.046;5.184;2023-11-22T00:29:45;30.57;;;19.43;;
15202;SDS011;7702;51.046;5.184;2023-11-22T00:32:13;27.10;;;18.40;;
15202;SDS011;7702;51.046;5.184;2023-11-22T00:34:39;29.63;;;19.83;;
15202;SDS011;7702;51.046;5.184;2023-11-22T00:37:04;31.13;;;19.30;;
15202;SDS011;7702;51.046;5.184;2023-11-22T00:39:30;30.50;;;19.40;;
15202;SDS011;7702;51.046;5.184;2023-11-22T00:41:56;34.13;;;19.80;;
15202;SDS011;7702;51.046;5.184;2023-11-22T00:44:22;29.83;;;18.53;;
15202;SDS011;7702;51.046;5.184;2023-11-22T00:46:48;33.20;;;19.33;;
15202;SDS011;7702;51.046;5.184;2023-11-22T00:49:13;31.70;;;19.73;;
15202;SDS011;7702;51.046;5.184;2023-11-22T00:51:39;32.47;;;19.77;;
15202;SDS011;7702;51.046;5.184;2023-11-22T00:54:05;31.70;;;18.37;;
15202;SDS011;7702;51.046;5.184;2023-11-22T00:56:31;32.10;;;19.67;;
15202;SDS011;7702;51.046;5.184;2023-11-22T00:58:57;34.33;;;20.87;;
15202;SDS011;7702;51.046;5.184;2023-11-22T01:01:25;32.83;;;19.43;;
15202;SDS011;7702;51.046;5.184;2023-11-22T01:03:50;36.27;;;19.37;;
15202;SDS011;7702;51.046;5.184;2023-11-22T01:06:16;31.97;;;19.33;;
15202;SDS011;7702;51.046;5.184;2023-11-22T01:08:43;33.93;;;20.33;;
15202;SDS011;7702;51.046;5.184;2023-11-22T01:11:08;30.83;;;19.00;;
15202;SDS011;7702;51.046;5.184;2023-11-22T01:13:34;29.50;;;19.20;;
15202;SDS011;7702;51.046;5.184;2023-11-22T01:16:06;31.00;;;20.00;;
15202;SDS011;7702;51.046;5.184;2023-11-22T01:18:32;30.23;;;19.73;;
15202;SDS011;7702;51.046;5.184;2023-11-22T01:20:58;33.80;;;20.33;;
15202;SDS011;7702;51.046;5.184;2023-11-22T01:23:23;33.63;;;20.73;;
15202;SDS011;7702;51.046;5.184;2023-11-22T01:25:49;30.17;;;19.10;;
15202;SDS011;7702;51.046;5.184;2023-11-22T01:28:15;30.63;;;19.17;;
15202;SDS011;7702;51.046;5.184;2023-11-22T01:30:42;29.23;;;19.07;;
15202;SDS011;7702;51.046;5.184;2023-11-22T01:33:11;29.70;;;19.47;;
15202;SDS011;7702;51.046;5.184;2023-11-22T01:35:37;34.73;;;20.10;;
15202;SDS011;7702;51.046;5.184;2023-11-22T01:38:03;32.27;;;19.67;;
15202;SDS011;7702;51.046;5.184;2023-11-22T01:40:30;33.93;;;21.47;;
15202;SDS011;7702;51.046;5.184;2023-11-22T01:42:56;33.47;;;20.43;;
15202;SDS011;7702;51.046;5.184;2023-11-22T01:45:23;33.10;;;19.87;;
15202;SDS011;7702;51.046;5.184;2023-11-22T01:47:48;35.57;;;20.37;;
15202;SDS011;7702;51.046;5.184;2023-11-22T01:50:15;31.17;;;19.17;;
15202;SDS011;7702;51.046;5.184;2023-11-22T01:52:41;35.47;;;20.23;;
15202;SDS011;7702;51.046;5.184;2023-11-22T01:55:08;31.60;;;19.83;;
15202;SDS011;7702;51.046;5.184;2023-11-22T01:57:34;34.90;;;20.77;;
15202;SDS011;7702;51.046;5.184;2023-11-22T02:00:03;32.83;;;20.33;;
15202;SDS011;7702;51.046;5.184;2023-11-22T02:02:29;32.73;;;20.03;;
15202;SDS011;7702;51.046;5.184;2023-11-22T02:04:55;36.00;;;20.50;;
15202;SDS011;7702;51.046;5.184;2023-11-22T02:07:21;31.13;;;19.27;;
15202;SDS011;7702;51.046;5.184;2023-11-22T02:09:47;29.97;;;19.97;;
15202;SDS011;7702;51.046;5.184;2023-11-22T02:12:14;31.07;;;18.20;;
15202;SDS011;7702;51.046;5.184;2023-11-22T02:14:40;31.43;;;18.77;;
15202;SDS011;7702;51.046;5.184;2023-11-22T02:17:06;31.97;;;19.27;;
15202;SDS011;7702;51.046;5.184;2023-11-22T02:19:31;30.30;;;19.23;;
15202;SDS011;7702;51.046;5.184;2023-11-22T02:21:58;30.63;;;19.63;;
15202;SDS011;7702;51.046;5.184;2023-11-22T02:24:24;28.43;;;18.90;;
15202;SDS011;7702;51.046;5.184;2023-11-22T02:26:49;32.47;;;20.13;;
15202;SDS011;7702;51.046;5.184;2023-11-22T02:29:16;27.47;;;18.00;;
15202;SDS011;7702;51.046;5.184;2023-11-22T02:31:42;28.43;;;19.30;;
15202;SDS011;7702;51.046;5.184;2023-11-22T02:34:11;28.80;;;18.07;;
15202;SDS011;7702;51.046;5.184;2023-11-22T02:36:36;27.97;;;17.47;;
15202;SDS011;7702;51.046;5.184;2023-11-22T02:39:02;27.60;;;18.70;;
15202;SDS011;7702;51.046;5.184;2023-11-22T02:41:28;32.30;;;19.43;;
15202;SDS011;7702;51.046;5.184;2023-11-22T02:43:57;28.10;;;17.97;;
15202;SDS011;7702;51.046;5.184;2023-11-22T02:46:23;31.77;;;19.27;;
15202;SDS011;7702;51.046;5.184;2023-11-22T02:48:48;30.27;;;19.47;;
15202;SDS011;7702;51.046;5.184;2023-11-22T02:51:14;28.80;;;18.37;;
15202;SDS011;7702;51.046;5.184;2023-11-22T02:53:42;27.37;;;18.13;;
15202;SDS011;7702;51.046;5.184;2023-11-22T02:56:09;29.13;;;19.40;;
15202;SDS011;7702;51.046;5.184;2023-11-22T02:58:35;27.70;;;19.03;;
15202;SDS011;7702;51.046;5.184;2023-11-22T03:01:01;29.83;;;19.57;;
15202;SDS011;7702;51.046;5.184;2023-11-22T03:03:27;28.53;;;18.30;;
15202;SDS011;7702;51.046;5.184;2023-11-22T03:05:53;32.20;;;19.40;;
15202;SDS011;7702;51.046;5.184;2023-11-22T03:08:19;27.93;;;18.93;;
15202;SDS011;7702;51.046;5.184;2023-11-22T03:10:45;31.90;;;20.20;;
15202;SDS011;7702;51.046;5.184;2023-11-22T03:13:11;29.30;;;18.83;;
15202;SDS011;7702;51.046;5.184;2023-11-22T03:15:37;31.37;;;17.97;;
15202;SDS011;7702;51.046;5.184;2023-11-22T03:18:03;29.70;;;18.33;;
15202;SDS011;7702;51.046;5.184;2023-11-22T03:20:31;29.07;;;18.47;;
15202;SDS011;7702;51.046;5.184;2023-11-22T03:22:58;28.03;;;18.83;;
15202;SDS011;7702;51.046;5.184;2023-11-22T03:25:23;29.83;;;20.20;;
15202;SDS011;7702;51.046;5.184;2023-11-22T03:27:49;35.20;;;18.60;;
15202;SDS011;7702;51.046;5.184;2023-11-22T03:30:15;27.83;;;18.57;;
15202;SDS011;7702;51.046;5.184;2023-11-22T03:32:41;29.67;;;18.77;;
15202;SDS011;7702;51.046;5.184;2023-11-22T03:35:07;27.87;;;18.77;;
15202;SDS011;7702;51.046;5.184;2023-11-22T03:37:33;32.33;;;18.83;;
15202;SDS011;7702;51.046;5.184;2023-11-22T03:40:00;30.73;;;20.10;;
15202;SDS011;7702;51.046;5.184;2023-11-22T03:42:25;31.27;;;20.33;;
15202;SDS011;7702;51.046;5.184;2023-11-22T03:44:54;31.67;;;19.03;;
15202;SDS011;7702;51.046;5.184;2023-11-22T03:47:20;27.60;;;17.97;;
15202;SDS011;7702;51.046;5.184;2023-11-22T03:49:45;29.27;;;17.80;;
15202;SDS011;7702;51.046;5.184;2023-11-22T03:52:11;28.67;;;17.83;;
15202;SDS011;7702;51.046;5.184;2023-11-22T03:54:37;24.80;;;16.97;;
15202;SDS011;7702;51.046;5.184;2023-11-22T03:57:04;27.43;;;17.00;;
15202;SDS011;7702;51.046;5.184;2023-11-22T03:59:30;29.33;;;17.73;;
15202;SDS011;7702;51.046;5.184;2023-11-22T04:01:56;30.50;;;18.33;;
15202;SDS011;7702;51.046;5.184;2023-11-22T04:04:22;28.93;;;16.87;;
15202;SDS011;7702;51.046;5.184;2023-11-22T04:06:48;27.00;;;17.70;;
15202;SDS011;7702;51.046;5.184;2023-11-22T04:09:14;29.97;;;18.87;;
15202;SDS011;7702;51.046;5.184;2023-11-22T04:11:41;30.13;;;17.83;;
15202;SDS011;7702;51.046;5.184;2023-11-22T04:14:08;31.20;;;18.30;;
15202;SDS011;7702;51.046;5.184;2023-11-22T04:16:34;26.53;;;17.50;;
15202;SDS011;7702;51.046;5.184;2023-11-22T04:19:00;27.03;;;18.53;;
15202;SDS011;7702;51.046;5.184;2023-11-22T04:21:25;29.40;;;18.70;;
15202;SDS011;7702;51.046;5.184;2023-11-22T04:23:51;31.03;;;17.80;;
15202;SDS011;7702;51.046;5.184;2023-11-22T04:26:17;28.43;;;17.70;;
15202;SDS011;7702;51.046;5.184;2023-11-22T04:28:45;27.50;;;17.97;;
15202;SDS011;7702;51.046;5.184;2023-11-22T04:31:11;30.60;;;18.10;;
15202;SDS011;7702;51.046;5.184;2023-11-22T04:33:37;31.23;;;19.13;;
15202;SDS011;7702;51.046;5.184;2023-11-22T04:36:03;30.70;;;18.93;;
15202;SDS011;7702;51.046;5.184;2023-11-22T04:38:29;29.67;;;17.67;;
15202;SDS011;7702;51.046;5.184;2023-11-22T04:40:55;27.97;;;18.17;;
15202;SDS011;7702;51.046;5.184;2023-11-22T04:43:20;28.67;;;18.03;;
15202;SDS011;7702;51.046;5.184;2023-11-22T04:45:46;31.30;;;19.13;;
15202;SDS011;7702;51.046;5.184;2023-11-22T04:48:12;30.87;;;18.63;;
15202;SDS011;7702;51.046;5.184;2023-11-22T04:50:40;30.13;;;18.63;;
15202;SDS011;7702;51.046;5.184;2023-11-22T04:53:07;31.77;;;19.53;;
15202;SDS011;7702;51.046;5.184;2023-11-22T04:55:34;32.00;;;19.33;;
15202;SDS011;7702;51.046;5.184;2023-11-22T04:58:00;29.67;;;18.60;;
15202;SDS011;7702;51.046;5.184;2023-11-22T05:00:25;32.30;;;18.97;;
15202;SDS011;7702;51.046;5.184;2023-11-22T05:02:51;32.37;;;19.70;;
15202;SDS011;7702;51.046;5.184;2023-11-22T05:05:16;30.97;;;19.40;;
15202;SDS011;7702;51.046;5.184;2023-11-22T05:07:42;31.73;;;19.20;;
15202;SDS011;7702;51.046;5.184;2023-11-22T05:10:09;35.90;;;19.27;;
15202;SDS011;7702;51.046;5.184;2023-11-22T05:12:35;30.87;;;19.03;;
15202;SDS011;7702;51.046;5.184;2023-11-22T05:15:01;32.57;;;18.23;;
15202;SDS011;7702;51.046;5.184;2023-11-22T05:17:27;32.40;;;18.53;;
15202;SDS011;7702;51.046;5.184;2023-11-22T05:19:53;32.87;;;19.23;;
15202;SDS011;7702;51.046;5.184;2023-11-22T05:22:19;29.97;;;18.47;;
15202;SDS011;7702;51.046;5.184;2023-11-22T05:24:44;29.97;;;18.77;;
15202;SDS011;7702;51.046;5.184;2023-11-22T05:27:10;29.80;;;18.33;;
15202;SDS011;7702;51.046;5.184;2023-11-22T05:29:36;29.20;;;18.67;;
15202;SDS011;7702;51.046;5.184;2023-11-22T05:32:02;30.67;;;19.03;;
15202;SDS011;7702;51.046;5.184;2023-11-22T05:34:28;30.07;;;18.13;;
15202;SDS011;7702;51.046;5.184;2023-11-22T05:36:54;29.97;;;18.83;;
15202;SDS011;7702;51.046;5.184;2023-11-22T05:39:20;29.50;;;19.13;;
15202;SDS011;7702;51.046;5.184;2023-11-22T05:41:47;33.70;;;20.00;;
15202;SDS011;7702;51.046;5.184;2023-11-22T05:44:13;28.43;;;17.87;;
15202;SDS011;7702;51.046;5.184;2023-11-22T05:46:39;30.00;;;18.33;;
15202;SDS011;7702;51.046;5.184;2023-11-22T05:49:05;28.83;;;18.07;;
15202;SDS011;7702;51.046;5.184;2023-11-22T05:51:31;31.40;;;18.37;;
15202;SDS011;7702;51.046;5.184;2023-11-22T05:53:57;28.33;;;18.17;;
15202;SDS011;7702;51.046;5.184;2023-11-22T05:56:22;30.70;;;19.37;;
15202;SDS011;7702;51.046;5.184;2023-11-22T05:58:48;32.13;;;19.00;;
15202;SDS011;7702;51.046;5.184;2023-11-22T06:01:14;33.97;;;19.90;;
15202;SDS011;7702;51.046;5.184;2023-11-22T06:03:40;31.30;;;19.60;;
15202;SDS011;7702;51.046;5.184;2023-11-22T06:06:06;32.33;;;20.20;;
15202;SDS011;7702;51.046;5.184;2023-11-22T06:08:32;32.73;;;20.50;;
15202;SDS011;7702;51.046;5.184;2023-11-22T06:10:58;35.20;;;21.50;;
15202;SDS011;7702;51.046;5.184;2023-11-22T06:13:24;36.63;;;21.80;;
15202;SDS011;7702;51.046;5.184;2023-11-22T06:15:51;39.50;;;21.90;;
15202;SDS011;7702;51.046;5.184;2023-11-22T06:18:17;36.13;;;21.10;;
15202;SDS011;7702;51.046;5.184;2023-11-22T06:20:44;36.27;;;21.37;;
15202;SDS011;7702;51.046;5.184;2023-11-22T06:23:10;37.27;;;21.67;;
15202;SDS011;7702;51.046;5.184;2023-11-22T06:25:36;37.67;;;22.80;;
15202;SDS011;7702;51.046;5.184;2023-11-22T06:28:02;43.20;;;24.00;;
15202;SDS011;7702;51.046;5.184;2023-11-22T06:30:28;40.50;;;23.13;;
15202;SDS011;7702;51.046;5.184;2023-11-22T06:32:55;38.77;;;23.23;;
15202;SDS011;7702;51.046;5.184;2023-11-22T06:35:21;39.40;;;23.73;;
15202;SDS011;7702;51.046;5.184;2023-11-22T06:37:47;39.17;;;23.33;;
15202;SDS011;7702;51.046;5.184;2023-11-22T06:40:13;44.50;;;24.53;;
15202;SDS011;7702;51.046;5.184;2023-11-22T06:42:41;39.13;;;22.97;;
15202;SDS011;7702;51.046;5.184;2023-11-22T06:45:07;42.37;;;24.17;;
15202;SDS011;7702;51.046;5.184;2023-11-22T06:47:41;42.60;;;22.53;;
15202;SDS011;7702;51.046;5.184;2023-11-22T06:50:08;40.57;;;23.37;;
15202;SDS011;7702;51.046;5.184;2023-11-22T06:52:36;46.17;;;25.37;;
15202;SDS011;7702;51.046;5.184;2023-11-22T06:55:06;49.30;;;26.53;;
15202;SDS011;7702;51.046;5.184;2023-11-22T06:57:33;47.87;;;25.70;;
15202;SDS011;7702;51.046;5.184;2023-11-22T07:00:00;46.40;;;25.90;;
15202;SDS011;7702;51.046;5.184;2023-11-22T07:02:26;48.80;;;26.00;;
15202;SDS011;7702;51.046;5.184;2023-11-22T07:04:52;53.60;;;27.30;;
15202;SDS011;7702;51.046;5.184;2023-11-22T07:07:18;50.70;;;27.10;;
15202;SDS011;7702;51.046;5.184;2023-11-22T07:09:44;42.67;;;24.27;;
15202;SDS011;7702;51.046;5.184;2023-11-22T07:12:11;49.73;;;27.23;;
15202;SDS011;7702;51.046;5.184;2023-11-22T07:14:37;51.13;;;26.53;;
15202;SDS011;7702;51.046;5.184;2023-11-22T07:17:03;48.27;;;27.13;;
15202;SDS011;7702;51.046;5.184;2023-11-22T07:19:32;49.27;;;27.27;;
15202;SDS011;7702;51.046;5.184;2023-11-22T07:22:03;54.33;;;28.03;;
15202;SDS011;7702;51.046;5.184;2023-11-22T07:24:29;56.40;;;29.43;;
15202;SDS011;7702;51.046;5.184;2023-11-22T07:26:59;54.83;;;28.37;;
15202;SDS011;7702;51.046;5.184;2023-11-22T07:29:26;56.50;;;29.13;;
15202;SDS011;7702;51.046;5.184;2023-11-22T07:31:54;59.20;;;28.63;;
15202;SDS011;7702;51.046;5.184;2023-11-22T07:34:21;57.13;;;27.83;;
15202;SDS011;7702;51.046;5.184;2023-11-22T07:36:47;57.23;;;31.20;;
15202;SDS011;7702;51.046;5.184;2023-11-22T07:39:12;59.10;;;29.33;;
15202;SDS011;7702;51.046;5.184;2023-11-22T07:41:38;52.33;;;27.50;;
15202;SDS011;7702;51.046;5.184;2023-11-22T07:44:04;57.77;;;29.00;;
15202;SDS011;7702;51.046;5.184;2023-11-22T07:46:30;59.33;;;28.80;;
15202;SDS011;7702;51.046;5.184;2023-11-22T07:48:56;60.33;;;28.37;;
15202;SDS011;7702;51.046;5.184;2023-11-22T07:51:22;57.70;;;29.70;;
15202;SDS011;7702;51.046;5.184;2023-11-22T07:53:49;57.17;;;30.10;;
15202;SDS011;7702;51.046;5.184;2023-11-22T07:56:15;59.63;;;29.67;;
15202;SDS011;7702;51.046;5.184;2023-11-22T07:58:41;58.87;;;30.10;;
15202;SDS011;7702;51.046;5.184;2023-11-22T08:01:07;53.43;;;28.27;;
15202;SDS011;7702;51.046;5.184;2023-11-22T08:03:39;61.30;;;29.47;;
15202;SDS011;7702;51.046;5.184;2023-11-22T08:06:10;62.10;;;29.80;;
15202;SDS011;7702;51.046;5.184;2023-11-22T08:08:36;57.13;;;29.80;;
15202;SDS011;7702;51.046;5.184;2023-11-22T08:11:04;59.57;;;29.73;;
15202;SDS011;7702;51.046;5.184;2023-11-22T08:13:39;60.70;;;29.87;;
15202;SDS011;7702;51.046;5.184;2023-11-22T08:16:09;56.50;;;29.13;;
15202;SDS011;7702;51.046;5.184;2023-11-22T08:18:38;56.67;;;29.13;;
15202;SDS011;7702;51.046;5.184;2023-11-22T08:21:05;52.53;;;27.77;;
15202;SDS011;7702;51.046;5.184;2023-11-22T08:23:31;56.70;;;28.63;;
15202;SDS011;7702;51.046;5.184;2023-11-22T08:25:59;52.03;;;27.97;;
15202;SDS011;7702;51.046;5.184;2023-11-22T08:28:29;55.13;;;28.80;;
15202;SDS011;7702;51.046;5.184;2023-11-22T08:30:54;62.63;;;30.67;;
15202;SDS011;7702;51.046;5.184;2023-11-22T08:33:21;58.30;;;30.20;;
15202;SDS011;7702;51.046;5.184;2023-11-22T08:35:47;57.83;;;30.53;;
15202;SDS011;7702;51.046;5.184;2023-11-22T08:38:16;56.53;;;28.47;;
15202;SDS011;7702;51.046;5.184;2023-11-22T08:40:42;58.23;;;30.47;;
15202;SDS011;7702;51.046;5.184;2023-11-22T08:43:08;55.93;;;29.57;;
15202;SDS011;7702;51.046;5.184;2023-11-22T08:45:33;59.07;;;29.37;;
15202;SDS011;7702;51.046;5.184;2023-11-22T08:47:59;57.43;;;29.23;;
15202;SDS011;7702;51.046;5.184;2023-11-22T08:50:25;57.50;;;27.43;;
15202;SDS011;7702;51.046;5.184;2023-11-22T08:52:51;54.47;;;28.93;;
15202;SDS011;7702;51.046;5.184;2023-11-22T08:55:18;50.30;;;27.30;;
15202;SDS011;7702;51.046;5.184;2023-11-22T08:57:47;56.03;;;29.03;;
15202;SDS011;7702;51.046;5.184;2023-11-22T09:00:13;54.67;;;28.17;;
15202;SDS011;7702;51.046;5.184;2023-11-22T09:02:39;56.43;;;28.40;;
15202;SDS011;7702;51.046;5.184;2023-11-22T09:05:05;55.13;;;27.17;;
15202;SDS011;7702;51.046;5.184;2023-11-22T09:07:33;56.30;;;29.37;;
15202;SDS011;7702;51.046;5.184;2023-11-22T09:10:03;62.27;;;30.27;;
15202;SDS011;7702;51.046;5.184;2023-11-22T09:12:39;57.53;;;28.93;;
15202;SDS011;7702;51.046;5.184;2023-11-22T09:15:10;57.40;;;27.90;;
15202;SDS011;7702;51.046;5.184;2023-11-22T09:17:42;51.83;;;26.73;;
15202;SDS011;7702;51.046;5.184;2023-11-22T09:20:12;54.40;;;26.43;;
15202;SDS011;7702;51.046;5.184;2023-11-22T09:22:42;52.00;;;26.67;;
15202;SDS011;7702;51.046;5.184;2023-11-22T09:25:20;56.47;;;27.00;;
15202;SDS011;7702;51.046;5.184;2023-11-22T09:27:49;49.60;;;25.80;;
15202;SDS011;7702;51.046;5.184;2023-11-22T09:30:24;51.07;;;25.90;;
15202;SDS011;7702;51.046;5.184;2023-11-22T09:33:10;53.43;;;25.73;;
15202;SDS011;7702;51.046;5.184;2023-11-22T09:35:36;51.80;;;25.53;;
15202;SDS011;7702;51.046;5.184;2023-11-22T09:38:04;44.67;;;24.13;;
15202;SDS011;7702;51.046;5.184;2023-11-22T09:40:43;47.67;;;24.00;;
15202;SDS011;7702;51.046;5.184;2023-11-22T09:43:10;48.37;;;24.97;;
15202;SDS011;7702;51.046;5.184;2023-11-22T09:45:37;47.00;;;22.57;;
15202;SDS011;7702;51.046;5.184;2023-11-22T09:48:06;46.23;;;24.67;;
15202;SDS011;7702;51.046;5.184;2023-11-22T09:50:40;48.23;;;23.57;;
15202;SDS011;7702;51.046;5.184;2023-11-22T09:53:14;47.87;;;23.47;;
15202;SDS011;7702;51.046;5.184;2023-11-22T09:55:50;45.47;;;23.90;;
15202;SDS011;7702;51.046;5.184;2023-11-22T09:58:17;42.00;;;21.80;;
15202;SDS011;7702;51.046;5.184;2023-11-22T10:00:45;46.13;;;23.17;;
15202;SDS011;7702;51.046;5.184;2023-11-22T10:03:12;41.53;;;22.23;;
15202;SDS011;7702;51.046;5.184;2023-11-22T10:05:42;39.40;;;21.70;;
15202;SDS011;7702;51.046;5.184;2023-11-22T10:08:08;42.97;;;23.27;;
15202;SDS011;7702;51.046;5.184;2023-11-22T10:10:37;39.00;;;21.93;;
15202;SDS011;7702;51.046;5.184;2023-11-22T10:13:03;45.07;;;23.37;;
15202;SDS011;7702;51.046;5.184;2023-11-22T10:15:29;42.37;;;22.53;;
15202;SDS011;7702;51.046;5.184;2023-11-22T10:17:59;43.40;;;23.27;;
15202;SDS011;7702;51.046;5.184;2023-11-22T10:23:04;48.17;;;24.00;;
15202;SDS011;7702;51.046;5.184;2023-11-22T10:25:43;47.30;;;23.73;;
15202;SDS011;7702;51.046;5.184;2023-11-22T10:28:09;47.67;;;24.87;;
15202;SDS011;7702;51.046;5.184;2023-11-22T10:30:36;49.37;;;25.53;;
15202;SDS011;7702;51.046;5.184;2023-11-22T10:33:04;47.13;;;25.77;;
15202;SDS011;7702;51.046;5.184;2023-11-22T10:35:30;47.20;;;24.60;;
15202;SDS011;7702;51.046;5.184;2023-11-22T10:37:56;38.87;;;22.97;;
15202;SDS011;7702;51.046;5.184;2023-11-22T10:40:24;43.37;;;23.37;;
15202;SDS011;7702;51.046;5.184;2023-11-22T10:42:49;41.00;;;22.80;;
15202;SDS011;7702;51.046;5.184;2023-11-22T10:45:17;45.50;;;23.57;;
15202;SDS011;7702;51.046;5.184;2023-11-22T10:47:43;42.07;;;23.23;;
15202;SDS011;7702;51.046;5.184;2023-11-22T10:50:10;42.33;;;22.50;;
15202;SDS011;7702;51.046;5.184;2023-11-22T10:52:39;45.13;;;22.80;;
15202;SDS011;7702;51.046;5.184;2023-11-22T10:55:08;44.87;;;22.77;;
15202;SDS011;7702;51.046;5.184;2023-11-22T10:57:40;41.23;;;22.07;;
15202;SDS011;7702;51.046;5.184;2023-11-22T11:00:16;39.13;;;21.20;;
15202;SDS011;7702;51.046;5.184;2023-11-22T11:02:44;42.20;;;21.93;;
15202;SDS011;7702;51.046;5.184;2023-11-22T11:05:18;38.37;;;21.43;;
15202;SDS011;7702;51.046;5.184;2023-11-22T11:07:48;38.10;;;21.60;;
15202;SDS011;7702;51.046;5.184;2023-11-22T11:10:20;36.73;;;20.07;;
15202;SDS011;7702;51.046;5.184;2023-11-22T11:12:47;35.30;;;19.90;;
15202;SDS011;7702;51.046;5.184;2023-11-22T11:15:13;35.67;;;19.63;;
15202;SDS011;7702;51.046;5.184;2023-11-22T11:17:42;34.33;;;20.07;;
15202;SDS011;7702;51.046;5.184;2023-11-22T11:20:10;34.20;;;20.50;;
15202;SDS011;7702;51.046;5.184;2023-11-22T11:22:38;34.57;;;18.17;;
15202;SDS011;7702;51.046;5.184;2023-11-22T11:25:04;34.50;;;20.30;;
15202;SDS011;7702;51.046;5.184;2023-11-22T11:27:34;36.67;;;20.03;;
15202;SDS011;7702;51.046;5.184;2023-11-22T11:33:08;32.37;;;19.27;;
15202;SDS011;7702;51.046;5.184;2023-11-22T11:35:40;32.20;;;19.47;;
15202;SDS011;7702;51.046;5.184;2023-11-22T11:38:07;30.33;;;18.93;;
15202;SDS011;7702;51.046;5.184;2023-11-22T11:40:34;32.63;;;21.33;;
15202;SDS011;7702;51.046;5.184;2023-11-22T11:43:01;31.03;;;18.43;;
15202;SDS011;7702;51.046;5.184;2023-11-22T11:45:27;37.03;;;19.93;;
15202;SDS011;7702;51.046;5.184;2023-11-22T11:47:54;32.47;;;19.17;;
15202;SDS011;7702;51.046;5.184;2023-11-22T11:50:22;30.93;;;18.83;;
15202;SDS011;7702;51.046;5.184;2023-11-22T11:52:48;31.43;;;19.40;;
15202;SDS011;7702;51.046;5.184;2023-11-22T11:55:14;34.23;;;20.20;;
15202;SDS011;7702;51.046;5.184;2023-11-22T11:57:40;31.17;;;18.70;;
15202;SDS011;7702;51.046;5.184;2023-11-22T12:00:07;31.97;;;20.23;;
15202;SDS011;7702;51.046;5.184;2023-11-22T12:02:34;35.17;;;20.80;;
15202;SDS011;7702;51.046;5.184;2023-11-22T12:05:00;33.90;;;20.20;;
15202;SDS011;7702;51.046;5.184;2023-11-22T12:07:33;33.40;;;20.47;;
15202;SDS011;7702;51.046;5.184;2023-11-22T12:10:03;33.40;;;20.67;;
15202;SDS011;7702;51.046;5.184;2023-11-22T12:12:31;32.00;;;19.37;;
15202;SDS011;7702;51.046;5.184;2023-11-22T12:14:58;35.27;;;20.03;;
15202;SDS011;7702;51.046;5.184;2023-11-22T12:17:24;29.53;;;19.47;;
15202;SDS011;7702;51.046;5.184;2023-11-22T12:19:52;31.00;;;19.77;;
15202;SDS011;7702;51.046;5.184;2023-11-22T12:22:18;29.67;;;19.40;;
15202;SDS011;7702;51.046;5.184;2023-11-22T12:24:45;33.90;;;21.43;;
15202;SDS011;7702;51.046;5.184;2023-11-22T12:27:11;27.53;;;18.37;;
15202;SDS011;7702;51.046;5.184;2023-11-22T12:29:37;30.57;;;20.33;;
15202;SDS011;7702;51.046;5.184;2023-11-22T12:32:04;34.90;;;21.37;;
15202;SDS011;7702;51.046;5.184;2023-11-22T12:34:30;32.63;;;19.57;;
15202;SDS011;7702;51.046;5.184;2023-11-22T12:36:58;32.17;;;19.27;;
15202;SDS011;7702;51.046;5.184;2023-11-22T12:39:25;29.83;;;19.17;;
15202;SDS011;7702;51.046;5.184;2023-11-22T12:41:51;32.70;;;19.77;;
15202;SDS011;7702;51.046;5.184;2023-11-22T12:44:17;28.57;;;18.53;;
15202;SDS011;7702;51.046;5.184;2023-11-22T12:46:45;34.20;;;20.37;;
15202;SDS011;7702;51.046;5.184;2023-11-22T12:49:11;32.40;;;19.83;;
15202;SDS011;7702;51.046;5.184;2023-11-22T12:51:37;32.27;;;19.03;;
15202;SDS011;7702;51.046;5.184;2023-11-22T12:54:03;29.40;;;17.93;;
15202;SDS011;7702;51.046;5.184;2023-11-22T12:56:29;30.37;;;18.60;;
15202;SDS011;7702;51.046;5.184;2023-11-22T12:58:55;29.37;;;18.60;;
15202;SDS011;7702;51.046;5.184;2023-11-22T13:01:21;28.90;;;18.87;;
15202;SDS011;7702;51.046;5.184;2023-11-22T13:03:46;27.10;;;18.83;;
15202;SDS011;7702;51.046;5.184;2023-11-22T13:06:12;27.07;;;18.07;;
15202;SDS011;7702;51.046;5.184;2023-11-22T13:08:38;29.27;;;18.97;;
15202;SDS011;7702;51.046;5.184;2023-11-22T13:11:04;30.03;;;19.30;;
15202;SDS011;7702;51.046;5.184;2023-11-22T13:13:30;33.27;;;20.07;;
15202;SDS011;7702;51.046;5.184;2023-11-22T13:15:55;27.57;;;18.70;;
15202;SDS011;7702;51.046;5.184;2023-11-22T13:18:22;27.23;;;18.30;;
15202;SDS011;7702;51.046;5.184;2023-11-22T13:20:48;32.07;;;19.30;;
15202;SDS011;7702;51.046;5.184;2023-11-22T13:23:15;28.20;;;18.63;;
15202;SDS011;7702;51.046;5.184;2023-11-22T13:25:41;26.20;;;18.47;;
15202;SDS011;7702;51.046;5.184;2023-11-22T13:28:07;28.03;;;18.60;;
15202;SDS011;7702;51.046;5.184;2023-11-22T13:30:33;26.50;;;17.93;;
15202;SDS011;7702;51.046;5.184;2023-11-22T13:33:00;27.40;;;18.57;;
15202;SDS011;7702;51.046;5.184;2023-11-22T13:35:26;28.43;;;19.17;;
15202;SDS011;7702;51.046;5.184;2023-11-22T13:37:56;25.60;;;18.00;;
15202;SDS011;7702;51.046;5.184;2023-11-22T13:40:27;28.87;;;17.23;;
15202;SDS011;7702;51.046;5.184;2023-11-22T13:42:56;24.60;;;16.07;;
15202;SDS011;7702;51.046;5.184;2023-11-22T13:45:23;23.73;;;17.13;;
15202;SDS011;7702;51.046;5.184;2023-11-22T13:47:53;25.13;;;17.13;;
15202;SDS011;7702;51.046;5.184;2023-11-22T13:50:25;21.90;;;16.47;;
15202;SDS011;7702;51.046;5.184;2023-11-22T13:52:54;23.80;;;16.50;;
15202;SDS011;7702;51.046;5.184;2023-11-22T13:55:23;23.40;;;16.33;;
15202;SDS011;7702;51.046;5.184;2023-11-22T14:00:19;22.80;;;15.97;;
15202;SDS011;7702;51.046;5.184;2023-11-22T14:02:48;21.33;;;15.23;;
15202;SDS011;7702;51.046;5.184;2023-11-22T14:05:17;27.57;;;18.30;;
15202;SDS011;7702;51.046;5.184;2023-11-22T14:07:44;22.67;;;16.87;;
15202;SDS011;7702;51.046;5.184;2023-11-22T14:10:10;24.63;;;17.70;;
15202;SDS011;7702;51.046;5.184;2023-11-22T14:12:37;22.13;;;16.10;;
15202;SDS011;7702;51.046;5.184;2023-11-22T14:15:03;23.97;;;16.77;;
15202;SDS011;7702;51.046;5.184;2023-11-22T14:17:30;25.00;;;17.30;;
15202;SDS011;7702;51.046;5.184;2023-11-22T14:19:55;22.10;;;16.67;;
15202;SDS011;7702;51.046;5.184;2023-11-22T14:22:21;34.80;;;24.17;;
15202;SDS011;7702;51.046;5.184;2023-11-22T14:24:48;27.37;;;18.67;;
15202;SDS011;7702;51.046;5.184;2023-11-22T14:27:15;23.73;;;17.10;;
15202;SDS011;7702;51.046;5.184;2023-11-22T14:29:42;26.13;;;19.43;;
15202;SDS011;7702;51.046;5.184;2023-11-22T14:32:08;23.40;;;17.50;;
15202;SDS011;7702;51.046;5.184;2023-11-22T14:34:34;23.30;;;16.27;;
15202;SDS011;7702;51.046;5.184;2023-11-22T14:37:00;26.67;;;17.93;;
15202;SDS011;7702;51.046;5.184;2023-11-22T14:39:26;26.47;;;16.67;;